Ropesville, TX (79358)

6:24 PM CDT on August 03, 2015 (GMT -0500)
BJC Weather Station #1 Ropesville, TX | | Change Station
CLOSE
Current Station
Personal Weather Station
Location: Ropesville, TX
Elevation: 3366 ft
Nearby Weather Stations

Elev 3366 ft 33.42 °N, 102.15 °W | Updated 21 seconds ago

Partly Cloudy
Partly Cloudy
82.6 °F
Feels Like 86 °F
N
1.7
Wind Variable Wind from ENE

Today
High -- | Low -- °F
--% Chance of Precip.
Yesterday
High -- | Low -- °F
Precip. -- in
7:02 AM 8:46 PM
Waning Gibbous, 83% visible
Pressure 29.78 in
Visibility 10.0 miles
Clouds Few 7000 ft
Mostly Cloudy 25000 ft
Heat Index 86 °F
Dew Point 69 °F
Humidity 63%
Rainfall 0.05 in
Snow Depth Not available.
UV 2 out of 12
Pollen 3.40 out of 12
Air Quality Not available.
Flu Activity Not available.
METAR KLBB 032253Z COR 16013KT 10SM FEW070 BKN250 32/16 A2995 RMK AO2 CB DSNT W-NW MOV E SLO SLP084 T03220156

More Conditions Fewer Conditions

Pressure 29.78 in
Visibility 10.0 miles
Clouds Few 7000 ft
Mostly Cloudy 25000 ft
Heat Index 86 °F
Dew Point 69 °F
Humidity 63%
Rainfall 0.05 in
Snow Depth Not available.
UV 2 out of 12
Pollen 3.40 out of 12
Air Quality Not available.
Flu Activity Not available.
METAR KLBB 032253Z COR 16013KT 10SM FEW070 BKN250 32/16 A2995 RMK AO2 CB DSNT W-NW MOV E SLO SLP084 T03220156

More Conditions Fewer Conditions

Nowcast | as of 6:20 PM CDT on August 3, 2015

Through 730 PM...scattered showers and thunderstorms will continue to slowly move east across the western into the central South Plains. The strongest storms will be capable of producing locally heavy rainfall...frequent lightning...and wind gusts to 50 mph. Levelland...Brownfield...Cotton Center...and Abernathy have the best chances at seeing the stronger storms. Additional development of new storms can also be expected across The Caprock through sunset.

×

10-Day Weather Forecast

×

Almanac

Astronomy

Aug. 03, 2015 Rise Set
Actual Time
Civil Twilight
Nautical Twilight
Astronomical Twilight
Moon
Length of Visible Light
Length of Day
Tomorrow will be .
, % of the Moon is Illuminated

Today's Extremes

State Highs State Lows

Community

WunderPhotos

Upload Photos

1,843,786 photos uploaded!

WunderBlogs® & News

Nearby

Air Quality

  Air Quality AQ Index Pollutant
Not available.

Snow Depth

Station Depth Elevation

Earthquake Activity

City Distance Mag. Time & Date
Minimum magnitude displayed is 2.5.

Coastal Water Temperatures

Place Temperature

Stations

Nearby Weather Stations

Station Location Temp. Windchill Dew Point Humidity Wind Precip. Elev Updated Type